createdAt,value
2023-03-24T00:01:20.189Z,97723.16
2023-03-24T00:03:31.091Z,97721.69
2023-03-24T00:05:36.932Z,97721.69
2023-03-24T00:07:43.676Z,97715.00
2023-03-24T00:09:49.223Z,97711.88
2023-03-24T00:11:54.260Z,97712.84
2023-03-24T00:13:59.899Z,97714.63
2023-03-24T00:16:05.116Z,97714.56
2023-03-24T00:18:10.926Z,97718.72
2023-03-24T00:20:20.561Z,97712.16
2023-03-24T00:22:28.327Z,97697.03
2023-03-24T00:24:33.418Z,97703.72
2023-03-24T00:26:40.339Z,97708.75
2023-03-24T00:28:48.153Z,97700.38
2023-03-24T00:30:55.165Z,97698.69
2023-03-24T00:33:02.090Z,97696.03
2023-03-24T00:35:09.070Z,97681.91
2023-03-24T00:37:16.688Z,97671.84
2023-03-24T00:39:23.041Z,97660.28
2023-03-24T00:41:29.538Z,97665.31
2023-03-24T00:43:34.955Z,97658.72
2023-03-24T00:45:46.505Z,97653.91
2023-03-24T00:47:54.498Z,97653.00
2023-03-24T00:50:02.239Z,97649.00
2023-03-24T00:52:10.627Z,97642.03
2023-03-24T00:54:21.970Z,97641.16
2023-03-24T00:56:31.354Z,97638.63
2023-03-24T00:58:36.781Z,97631.84
2023-03-24T01:00:42.750Z,97636.19
2023-03-24T01:02:48.753Z,97643.13
2023-03-24T01:04:56.607Z,97640.56
2023-03-24T01:07:02.084Z,97630.63
2023-03-24T01:09:10.729Z,97636.56
2023-03-24T01:11:19.629Z,97627.50
2023-03-24T01:13:28.562Z,97627.50
2023-03-24T01:15:36.605Z,97629.16
2023-03-24T01:17:41.872Z,97618.75
2023-03-24T01:19:47.036Z,97628.72
2023-03-24T01:21:54.505Z,97623.69
2023-03-24T01:23:59.646Z,97626.19
2023-03-24T01:26:09.471Z,97618.63
2023-03-24T01:28:21.824Z,97605.28
2023-03-24T01:30:30.050Z,97598.59
2023-03-24T01:32:35.460Z,97595.19
2023-03-24T01:34:40.526Z,97587.66
2023-03-24T01:36:45.609Z,97587.59
2023-03-24T01:38:51.089Z,97585.28
2023-03-24T01:40:56.435Z,97578.84
2023-03-24T01:43:02.825Z,97579.06
2023-03-24T01:45:54.479Z,97573.41
2023-03-24T01:47:59.973Z,97567.78
2023-03-24T01:50:05.748Z,97566.16
2023-03-24T01:52:16.798Z,97560.59
2023-03-24T01:54:27.588Z,97553.09
2023-03-24T01:56:40.042Z,97546.72
2023-03-24T01:58:51.785Z,97546.94
2023-03-24T02:01:06.438Z,97544.72
2023-03-24T02:03:38.925Z,97534.94
2023-03-24T02:05:47.101Z,97525.75
2023-03-24T02:07:59.324Z,97526.63
2023-03-24T02:10:07.992Z,97518.06
2023-03-24T02:12:13.829Z,97516.50
2023-03-24T02:14:20.671Z,97513.97
2023-03-24T02:16:45.735Z,97509.09
2023-03-24T02:19:02.937Z,97505.81
2023-03-24T02:22:01.976Z,97499.91
2023-03-24T02:24:55.282Z,97497.56
2023-03-24T02:27:10.020Z,97489.25
2023-03-24T02:30:05.058Z,97490.88
2023-03-24T02:32:32.049Z,97487.59
2023-03-24T02:35:02.022Z,97484.97
2023-03-24T02:37:55.185Z,97482.28
2023-03-24T02:40:26.774Z,97486.28
2023-03-24T02:42:44.753Z,97485.25
2023-03-24T02:45:00.994Z,97483.50
2023-03-24T02:47:13.057Z,97481.56
2023-03-24T02:49:31.031Z,97481.56
2023-03-24T02:51:42.742Z,97481.56
2023-03-24T02:54:00.119Z,97483.16
2023-03-24T02:56:15.443Z,97481.63
2023-03-24T02:58:27.216Z,97479.06
2023-03-24T03:00:45.165Z,97474.00
2023-03-24T03:02:58.754Z,97471.50
2023-03-24T03:05:09.036Z,97475.56
2023-03-24T03:07:17.055Z,97463.63
2023-03-24T03:09:24.827Z,97469.25
2023-03-24T03:11:32.815Z,97463.22
2023-03-24T03:13:42.971Z,97460.31
2023-03-24T03:15:54.616Z,97458.44
2023-03-24T03:18:11.556Z,97448.38
2023-03-24T03:20:21.060Z,97452.34
2023-03-24T03:22:30.122Z,97449.84
2023-03-24T03:24:40.978Z,97451.63
2023-03-24T03:26:50.879Z,97451.75
2023-03-24T03:29:01.910Z,97442.03
2023-03-24T03:31:14.981Z,97436.97
2023-03-24T03:33:25.270Z,97431.19
2023-03-24T03:35:36.513Z,97423.56
2023-03-24T03:37:53.473Z,97419.94
2023-03-24T03:40:02.512Z,97423.25
2023-03-24T03:42:11.388Z,97420.06
2023-03-24T03:44:16.875Z,97423.81
2023-03-24T03:46:22.351Z,97418.44
2023-03-24T03:48:29.373Z,97411.81
2023-03-24T03:50:35.911Z,97410.09
2023-03-24T03:52:45.122Z,97406.59
2023-03-24T03:54:51.034Z,97409.53
2023-03-24T03:56:57.148Z,97403.63
2023-03-24T03:59:09.635Z,97405.84
2023-03-24T04:01:19.146Z,97407.47
2023-03-24T04:04:26.339Z,97417.69
2023-03-24T04:07:19.205Z,97419.31
2023-03-24T04:09:43.004Z,97414.28
2023-03-24T04:12:37.007Z,97409.75
2023-03-24T04:15:36.120Z,97407.94
2023-03-24T04:18:37.216Z,97406.41
2023-03-24T04:20:52.203Z,97402.25
2023-03-24T04:23:09.739Z,97405.59
2023-03-24T04:25:23.291Z,97393.16
2023-03-24T04:27:40.116Z,97396.63
2023-03-24T04:29:53.899Z,97387.63
2023-03-24T04:32:08.864Z,97397.53
2023-03-24T04:34:21.332Z,97398.56
2023-03-24T04:36:42.550Z,97401.25
2023-03-24T04:39:07.394Z,97398.16
2023-03-24T04:41:25.894Z,97404.91
2023-03-24T04:43:42.589Z,97404.25
2023-03-24T04:45:49.901Z,97392.38
2023-03-24T04:48:13.581Z,97405.41
2023-03-24T04:50:34.655Z,97403.63
2023-03-24T04:52:45.727Z,97404.50
2023-03-24T04:54:52.292Z,97408.06
2023-03-24T04:57:01.998Z,97407.94
2023-03-24T04:59:22.914Z,97406.94
2023-03-24T05:01:30.341Z,97409.31
2023-03-24T05:04:10.652Z,97415.91
2023-03-24T05:06:17.060Z,97410.72
2023-03-24T05:08:23.978Z,97410.56
2023-03-24T05:10:29.688Z,97415.50
2023-03-24T05:12:35.850Z,97416.25
2023-03-24T05:15:10.705Z,97414.56
2023-03-24T05:17:16.504Z,97413.81
2023-03-24T05:19:24.165Z,97416.75
2023-03-24T05:21:29.254Z,97414.97
2023-03-24T05:23:34.315Z,97415.13
2023-03-24T05:25:39.798Z,97413.34
2023-03-24T05:27:46.290Z,97416.75
2023-03-24T05:29:59.101Z,97425.94
2023-03-24T05:32:07.683Z,97434.97
2023-03-24T05:34:13.187Z,97451.41
2023-03-24T05:36:40.227Z,97439.38
2023-03-24T05:38:46.099Z,97445.38
2023-03-24T05:40:51.238Z,97445.97
2023-03-24T05:42:56.926Z,97441.16
2023-03-24T05:45:05.494Z,97443.78
2023-03-24T05:47:12.940Z,97436.13
2023-03-24T05:49:17.939Z,97440.22
2023-03-24T05:51:22.983Z,97437.75
2023-03-24T05:53:40.919Z,97439.47
2023-03-24T05:55:46.075Z,97455.34
2023-03-24T05:58:11.836Z,97453.75
2023-03-24T06:00:27.236Z,97460.44
2023-03-24T06:02:40.022Z,97466.28
2023-03-24T06:05:04.046Z,97457.91
2023-03-24T06:07:09.230Z,97459.56
2023-03-24T06:09:19.705Z,97466.22
2023-03-24T06:11:24.824Z,97460.84
2023-03-24T06:13:38.336Z,97458.91
2023-03-24T06:15:43.529Z,97445.41
2023-03-24T06:18:14.512Z,97445.41
2023-03-24T06:20:20.524Z,97446.25
2023-03-24T06:22:39.197Z,97443.66
2023-03-24T06:24:53.914Z,97445.25
2023-03-24T06:27:02.521Z,97437.69
2023-03-24T06:29:11.175Z,97439.41
2023-03-24T06:31:19.477Z,97445.25
2023-03-24T06:33:26.059Z,97450.88
2023-03-24T06:35:32.296Z,97453.38
2023-03-24T06:37:50.674Z,97446.75
2023-03-24T06:39:58.464Z,97452.66
2023-03-24T06:42:07.483Z,97454.13
2023-03-24T06:44:12.917Z,97447.22
2023-03-24T06:46:20.489Z,97453.59
2023-03-24T06:48:26.091Z,97454.22
2023-03-24T06:50:40.015Z,97459.28
2023-03-24T06:52:47.939Z,97457.31
2023-03-24T06:54:59.539Z,97458.81
2023-03-24T06:57:06.881Z,97457.03
2023-03-24T06:59:35.044Z,97470.38
2023-03-24T07:01:40.621Z,97483.72
2023-03-24T07:03:59.484Z,97474.44
2023-03-24T07:06:13.590Z,97483.56
2023-03-24T07:10:39.808Z,97479.16
2023-03-24T07:12:44.882Z,97483.22
2023-03-24T07:14:50.356Z,97476.22
2023-03-24T07:16:56.119Z,97480.78
2023-03-24T07:19:04.310Z,97465.47
2023-03-24T07:21:13.584Z,97485.50
2023-03-24T07:23:19.025Z,97492.16
2023-03-24T07:25:31.605Z,97486.16
2023-03-24T07:27:59.792Z,97495.25
2023-03-24T07:30:05.586Z,97499.41
2023-03-24T07:32:22.777Z,97490.63
2023-03-24T07:34:28.435Z,97498.03
2023-03-24T07:36:33.723Z,97487.91
2023-03-24T07:38:39.102Z,97492.78
2023-03-24T07:40:48.829Z,97483.44
2023-03-24T07:42:54.744Z,97480.41
2023-03-24T07:45:19.745Z,97483.31
2023-03-24T07:47:26.953Z,97493.56
2023-03-24T07:49:33.146Z,97492.75
2023-03-24T07:51:44.604Z,97500.69
2023-03-24T07:53:59.959Z,97502.38
2023-03-24T07:56:16.244Z,97512.13
2023-03-24T07:58:30.041Z,97507.16
2023-03-24T08:00:58.936Z,97511.72
2023-03-24T08:03:16.686Z,97508.31
2023-03-24T08:05:51.296Z,97511.56
2023-03-24T08:08:10.945Z,97510.66
2023-03-24T08:10:18.187Z,97510.25
2023-03-24T08:12:23.216Z,97514.28
2023-03-24T08:14:28.579Z,97512.75
2023-03-24T08:16:36.192Z,97511.06
2023-03-24T08:18:41.258Z,97515.19
2023-03-24T08:20:46.278Z,97497.50
2023-03-24T08:22:54.775Z,97509.41
2023-03-24T08:24:59.831Z,97507.78
2023-03-24T08:27:06.474Z,97504.56
2023-03-24T08:29:11.602Z,97509.34
2023-03-24T08:31:16.953Z,97510.06
2023-03-24T08:33:24.603Z,97517.22
2023-03-24T08:35:34.477Z,97502.03
2023-03-24T08:37:39.926Z,97511.13
2023-03-24T08:39:45.346Z,97503.53
2023-03-24T08:41:50.947Z,97494.31
2023-03-24T08:43:56.733Z,97492.66
2023-03-24T08:46:04.130Z,97496.53
2023-03-24T08:48:11.255Z,97495.34
2023-03-24T08:50:19.193Z,97519.75
2023-03-24T08:52:24.919Z,97520.94
2023-03-24T08:54:29.892Z,97511.63
2023-03-24T08:56:35.589Z,97515.41
2023-03-24T08:58:40.652Z,97507.38
2023-03-24T09:00:47.778Z,97509.78
2023-03-24T09:02:56.253Z,97515.41
2023-03-24T09:05:02.025Z,97515.28
2023-03-24T09:07:10.068Z,97511.28
2023-03-24T09:09:16.032Z,97507.16
2023-03-24T09:11:24.980Z,97512.31
2023-03-24T09:13:30.626Z,97520.50
2023-03-24T09:15:36.309Z,97517.06
2023-03-24T09:17:42.344Z,97526.19
2023-03-24T09:19:47.729Z,97533.16
2023-03-24T09:21:53.002Z,97529.00
2023-03-24T09:24:01.600Z,97530.09
2023-03-24T09:26:08.671Z,97533.16
2023-03-24T09:28:16.358Z,97536.41
2023-03-24T09:30:22.172Z,97526.28
2023-03-24T09:32:27.833Z,97515.41
2023-03-24T09:34:34.045Z,97515.41
2023-03-24T09:36:39.688Z,97519.19
2023-03-24T09:38:44.757Z,97509.25
2023-03-24T09:40:58.077Z,97516.25
2023-03-24T09:43:07.606Z,97510.13
2023-03-24T09:45:19.786Z,97509.06
2023-03-24T09:47:32.726Z,97503.66
2023-03-24T09:49:41.325Z,97501.53
2023-03-24T09:51:49.248Z,97517.03
2023-03-24T09:54:07.737Z,97506.09
2023-03-24T09:56:20.503Z,97513.75
2023-03-24T09:58:36.657Z,97515.09
2023-03-24T10:00:42.800Z,97515.44
2023-03-24T10:02:50.416Z,97511.22
2023-03-24T10:04:57.415Z,97510.88
2023-03-24T10:07:10.955Z,97502.38
2023-03-24T10:09:27.401Z,97506.00
2023-03-24T10:11:42.285Z,97541.91
2023-03-24T10:14:03.139Z,97593.53
2023-03-24T10:16:18.214Z,97607.16
2023-03-24T10:18:36.539Z,97595.03
2023-03-24T10:20:47.954Z,97583.81
2023-03-24T10:23:04.894Z,97579.06
2023-03-24T10:25:21.667Z,97600.84
2023-03-24T10:27:35.411Z,97599.19
2023-03-24T10:29:41.848Z,97605.13
2023-03-24T10:31:52.253Z,97611.19
2023-03-24T10:33:57.873Z,97613.16
2023-03-24T10:36:09.610Z,97596.25
2023-03-24T10:38:21.516Z,97576.97
2023-03-24T10:40:33.224Z,97587.66
2023-03-24T10:42:41.690Z,97598.09
2023-03-24T10:44:47.413Z,97606.38
2023-03-24T10:46:57.093Z,97612.69
2023-03-24T10:49:17.206Z,97619.50
2023-03-24T10:51:34.837Z,97616.81
2023-03-24T10:53:39.870Z,97623.19
2023-03-24T10:55:48.534Z,97621.88
2023-03-24T10:58:00.753Z,97626.25
2023-03-24T11:00:19.219Z,97628.94
2023-03-24T11:02:28.348Z,97626.03
2023-03-24T11:04:34.651Z,97632.72
2023-03-24T11:06:39.670Z,97629.03
2023-03-24T11:08:45.174Z,97642.28
2023-03-24T11:10:50.208Z,97656.72
2023-03-24T11:13:08.089Z,97672.69
2023-03-24T11:15:23.723Z,97673.59
2023-03-24T11:17:29.757Z,97671.50
2023-03-24T11:19:38.385Z,97665.78
2023-03-24T11:21:46.189Z,97666.06
2023-03-24T11:23:51.282Z,97668.78
2023-03-24T11:26:11.488Z,97664.31
2023-03-24T11:28:24.158Z,97681.06
2023-03-24T11:30:35.915Z,97684.31
2023-03-24T11:32:41.082Z,97675.88
2023-03-24T11:34:53.040Z,97669.47
2023-03-24T11:37:01.136Z,97667.66
2023-03-24T11:39:21.945Z,97664.06
2023-03-24T11:41:26.991Z,97661.84
2023-03-24T11:43:35.275Z,97664.97
2023-03-24T11:45:44.308Z,97664.09
2023-03-24T11:47:49.901Z,97681.13
2023-03-24T11:50:05.139Z,97681.41
2023-03-24T11:52:21.430Z,97681.34
2023-03-24T11:54:33.176Z,97671.38
2023-03-24T11:56:43.446Z,97654.50
2023-03-24T11:58:59.438Z,97658.44
2023-03-24T12:01:12.739Z,97666.47
2023-03-24T12:03:48.401Z,97677.91
2023-03-24T12:05:59.758Z,97663.94
2023-03-24T12:08:23.667Z,97677.44
2023-03-24T12:10:44.220Z,97653.31
2023-03-24T12:13:04.152Z,97670.69
2023-03-24T12:15:35.413Z,97662.97
2023-03-24T12:17:44.637Z,97657.47
2023-03-24T12:20:18.584Z,97660.09
2023-03-24T12:22:43.397Z,97660.97
2023-03-24T12:25:25.264Z,97673.94
2023-03-24T12:27:43.283Z,97666.94
2023-03-24T12:30:02.991Z,97656.81
2023-03-24T12:32:43.333Z,97657.28
2023-03-24T12:35:39.533Z,97654.16
2023-03-24T12:38:01.549Z,97643.94
2023-03-24T12:40:29.684Z,97650.13
2023-03-24T12:42:41.932Z,97644.69
2023-03-24T12:45:34.792Z,97646.66
2023-03-24T12:48:14.565Z,97642.66
2023-03-24T12:50:37.367Z,97648.09
2023-03-24T12:53:12.078Z,97645.34
2023-03-24T12:55:25.622Z,97642.34
2023-03-24T12:57:35.880Z,97646.66
2023-03-24T12:59:46.960Z,97643.69
2023-03-24T13:01:58.432Z,97645.28
2023-03-24T13:04:14.492Z,97638.97
2023-03-24T13:06:26.492Z,97640.50
2023-03-24T13:08:32.489Z,97639.78
2023-03-24T13:10:42.720Z,97643.63
2023-03-24T13:12:55.932Z,97653.84
2023-03-24T13:15:09.299Z,97662.53
2023-03-24T13:17:23.616Z,97654.44
2023-03-24T13:19:32.352Z,97650.28
2023-03-24T13:21:37.989Z,97664.59
2023-03-24T13:23:49.765Z,97679.88
2023-03-24T13:26:04.065Z,97677.56
2023-03-24T13:28:21.233Z,97665.81
2023-03-24T13:30:37.710Z,97672.16
2023-03-24T13:32:47.782Z,97660.97
2023-03-24T13:35:01.855Z,97659.97
2023-03-24T13:37:14.395Z,97649.75
2023-03-24T13:39:22.952Z,97661.97
2023-03-24T13:41:32.009Z,97660.34
2023-03-24T13:43:37.575Z,97664.31
2023-03-24T13:45:49.886Z,97658.28
2023-03-24T13:48:09.411Z,97654.63
2023-03-24T13:50:18.426Z,97658.41
2023-03-24T13:52:37.661Z,97645.94
2023-03-24T13:54:44.220Z,97639.44
2023-03-24T13:56:56.654Z,97651.00
2023-03-24T13:59:28.298Z,97648.13
2023-03-24T14:01:38.842Z,97643.78
2023-03-24T14:03:46.102Z,97638.59
2023-03-24T14:06:05.138Z,97644.19
2023-03-24T14:08:19.354Z,97643.59
2023-03-24T14:10:45.566Z,97631.31
2023-03-24T14:12:57.436Z,97632.22
2023-03-24T14:15:20.684Z,97625.69
2023-03-24T14:17:26.322Z,97626.19
2023-03-24T14:19:39.216Z,97619.91
2023-03-24T14:21:47.414Z,97612.41
2023-03-24T14:23:56.811Z,97599.59
2023-03-24T14:26:03.785Z,97593.31
2023-03-24T14:28:25.351Z,97586.28
2023-03-24T14:30:38.139Z,97594.66
2023-03-24T14:32:49.437Z,97588.19
2023-03-24T14:35:00.384Z,97590.38
2023-03-24T14:37:11.758Z,97602.25
2023-03-24T14:39:30.198Z,97608.38
2023-03-24T14:41:39.292Z,97603.34
2023-03-24T14:44:01.898Z,97605.06
2023-03-24T14:46:09.356Z,97604.59
2023-03-24T14:48:43.169Z,97611.13
2023-03-24T14:50:49.237Z,97612.44
2023-03-24T14:53:01.773Z,97616.16
2023-03-24T14:55:12.824Z,97611.38
2023-03-24T14:57:23.325Z,97605.53
2023-03-24T14:59:44.079Z,97605.34
2023-03-24T15:01:54.015Z,97606.78
2023-03-24T15:04:05.267Z,97601.28
2023-03-24T15:06:17.396Z,97597.03
2023-03-24T15:08:26.998Z,97588.69
2023-03-24T15:10:40.739Z,97582.56
2023-03-24T15:12:48.106Z,97579.72
2023-03-24T15:14:53.763Z,97571.41
2023-03-24T15:17:05.639Z,97578.81
2023-03-24T15:19:20.520Z,97573.25
2023-03-24T15:21:36.996Z,97579.06
2023-03-24T15:23:51.381Z,97580.13
2023-03-24T15:25:56.901Z,97580.63
2023-03-24T15:28:02.157Z,97582.34
2023-03-24T15:30:16.467Z,97587.06
2023-03-24T15:32:24.435Z,97580.28
2023-03-24T15:37:24.901Z,97559.44
2023-03-24T15:39:38.217Z,97558.94
2023-03-24T15:41:43.310Z,97561.09
2023-03-24T15:43:51.926Z,97559.16
2023-03-24T15:46:11.069Z,97555.03
2023-03-24T15:48:21.483Z,97554.53
2023-03-24T15:50:38.534Z,97554.13
2023-03-24T15:52:43.935Z,97545.41
2023-03-24T15:54:51.750Z,97539.03
2023-03-24T15:57:18.951Z,97546.47
2023-03-24T15:59:24.009Z,97545.19
2023-03-24T16:01:36.282Z,97538.53
2023-03-24T16:03:44.271Z,97540.03
2023-03-24T16:05:51.687Z,97544.41
2023-03-24T16:08:04.318Z,97537.81
2023-03-24T16:10:34.240Z,97541.41
2023-03-24T16:12:40.564Z,97531.22
2023-03-24T16:14:45.840Z,97539.50
2023-03-24T16:16:50.971Z,97545.81
2023-03-24T16:18:57.094Z,97530.50
2023-03-24T16:21:02.702Z,97532.50
2023-03-24T16:23:07.742Z,97537.69
2023-03-24T16:25:16.320Z,97528.53
2023-03-24T16:27:21.391Z,97533.00
2023-03-24T16:29:27.196Z,97528.00
2023-03-24T16:31:35.725Z,97522.59
2023-03-24T16:33:40.761Z,97518.28
2023-03-24T16:35:46.643Z,97535.72
2023-03-24T16:37:51.675Z,97534.94
2023-03-24T16:39:56.712Z,97527.63
2023-03-24T16:42:05.045Z,97532.84
2023-03-24T16:44:10.099Z,97539.03
2023-03-24T16:46:18.448Z,97532.69
2023-03-24T16:48:23.719Z,97545.94
2023-03-24T16:50:34.875Z,97544.53
2023-03-24T16:52:40.235Z,97547.69
2023-03-24T16:54:45.459Z,97552.91
2023-03-24T16:56:51.228Z,97553.84
2023-03-24T16:58:59.719Z,97557.31
2023-03-24T17:01:04.830Z,97560.69
2023-03-24T17:03:10.601Z,97557.34
2023-03-24T17:05:28.410Z,97560.63
2023-03-24T17:07:33.465Z,97563.66
2023-03-24T17:09:38.551Z,97560.50
2023-03-24T17:11:47.101Z,97571.31
2023-03-24T17:13:52.138Z,97574.91
2023-03-24T17:16:00.059Z,97562.81
2023-03-24T17:18:05.478Z,97575.22
2023-03-24T17:20:13.644Z,97569.06
2023-03-24T17:22:20.206Z,97566.50
2023-03-24T17:24:25.700Z,97576.44
2023-03-24T17:26:32.220Z,97573.00
2023-03-24T17:28:38.102Z,97570.97
2023-03-24T17:30:43.192Z,97570.81
2023-03-24T17:32:51.447Z,97569.59
2023-03-24T17:34:56.992Z,97569.50
2023-03-24T17:37:03.182Z,97577.06
2023-03-24T17:39:10.732Z,97569.38
2023-03-24T17:41:16.871Z,97579.06
2023-03-24T17:43:22.078Z,97581.94
2023-03-24T17:45:27.105Z,97588.69
2023-03-24T17:47:33.309Z,97588.69
2023-03-24T17:49:41.614Z,97587.03
2023-03-24T17:51:46.901Z,97598.72
2023-03-24T17:53:53.733Z,97586.59
2023-03-24T17:56:01.734Z,97591.25
2023-03-24T17:58:07.251Z,97600.81
2023-03-24T18:00:16.432Z,97607.34
2023-03-24T18:02:21.652Z,97601.44
2023-03-24T18:04:26.706Z,97608.53
2023-03-24T18:06:34.664Z,97608.91
2023-03-24T18:08:41.341Z,97606.91
2023-03-24T18:10:46.619Z,97611.72
2023-03-24T18:12:52.772Z,97610.22
2023-03-24T18:14:57.912Z,97616.69
2023-03-24T18:17:03.052Z,97615.84
2023-03-24T18:19:08.701Z,97616.59
2023-03-24T18:21:14.116Z,97633.16
2023-03-24T18:23:21.760Z,97630.59
2023-03-24T18:25:26.798Z,97634.53
2023-03-24T18:27:31.936Z,97637.50
2023-03-24T18:29:37.014Z,97643.69
2023-03-24T18:31:42.135Z,97641.66
2023-03-24T18:33:48.846Z,97645.88
2023-03-24T18:35:54.656Z,97641.72
2023-03-24T18:37:59.979Z,97633.50
2023-03-24T18:40:10.153Z,97642.72
2023-03-24T18:42:15.206Z,97644.47
2023-03-24T18:44:21.129Z,97644.78
2023-03-24T18:46:27.470Z,97645.88
2023-03-24T18:48:32.871Z,97640.09
2023-03-24T18:50:41.475Z,97647.00
2023-03-24T18:52:46.889Z,97649.50
2023-03-24T18:54:53.445Z,97647.06
2023-03-24T18:57:02.255Z,97646.63
2023-03-24T18:59:07.625Z,97645.22
2023-03-24T19:01:16.036Z,97641.84
2023-03-24T19:03:23.706Z,97645.00
2023-03-24T19:05:29.546Z,97645.66
2023-03-24T19:07:37.227Z,97656.72
2023-03-24T19:09:42.388Z,97656.59
2023-03-24T19:11:47.931Z,97663.56
2023-03-24T19:13:57.754Z,97665.19
2023-03-24T19:16:02.858Z,97671.84
2023-03-24T19:18:08.198Z,97669.78
2023-03-24T19:20:15.548Z,97666.91
2023-03-24T19:22:22.296Z,97662.72
2023-03-24T19:24:28.399Z,97664.81
2023-03-24T19:26:34.182Z,97669.63
2023-03-24T19:28:39.852Z,97667.72
2023-03-24T19:30:47.547Z,97668.97
2023-03-24T19:32:52.618Z,97672.09
2023-03-24T19:34:58.622Z,97676.31
2023-03-24T19:37:04.378Z,97671.28
2023-03-24T19:39:10.161Z,97672.34
2023-03-24T19:41:17.594Z,97682.69
2023-03-24T19:43:23.228Z,97673.00
2023-03-24T19:45:30.410Z,97681.56
2023-03-24T19:47:39.563Z,97679.00
2023-03-24T19:49:44.614Z,97685.41
2023-03-24T19:51:51.089Z,97687.38
2023-03-24T19:53:56.198Z,97686.47
2023-03-24T19:56:03.457Z,97695.28
2023-03-24T19:58:09.098Z,97700.56
2023-03-24T20:00:17.885Z,97697.03
2023-03-24T20:02:23.045Z,97695.28
2023-03-24T20:04:31.706Z,97702.47
2023-03-24T20:06:36.757Z,97698.50
2023-03-24T20:08:42.081Z,97690.13
2023-03-24T20:10:47.158Z,97695.25
2023-03-24T20:12:52.263Z,97700.19
2023-03-24T20:14:58.501Z,97712.22
2023-03-24T20:17:03.913Z,97725.28
2023-03-24T20:19:09.624Z,97735.75
2023-03-24T20:21:22.804Z,97769.41
2023-03-24T20:23:27.701Z,97803.53
2023-03-24T20:25:33.044Z,97804.56
2023-03-24T20:27:38.422Z,97798.13
2023-03-24T20:29:46.219Z,97794.88
2023-03-24T20:31:51.335Z,97799.72
2023-03-24T20:33:56.459Z,97791.03
2023-03-24T20:36:03.575Z,97797.97
2023-03-24T20:38:11.297Z,97789.19
2023-03-24T20:40:16.450Z,97775.34
2023-03-24T20:42:24.329Z,97771.25
2023-03-24T20:44:30.039Z,97759.13
2023-03-24T20:46:36.055Z,97766.16
2023-03-24T20:48:41.385Z,97754.88
2023-03-24T20:50:47.642Z,97748.66
2023-03-24T20:52:52.658Z,97744.91
2023-03-24T20:55:01.460Z,97737.69
2023-03-24T20:57:06.879Z,97737.28
2023-03-24T20:59:13.941Z,97740.97
2023-03-24T21:01:24.078Z,97737.88
2023-03-24T21:03:29.619Z,97737.88
2023-03-24T21:05:36.061Z,97725.41
2023-03-24T21:07:44.298Z,97718.66
2023-03-24T21:09:49.689Z,97713.84
2023-03-24T21:11:57.562Z,97716.38
2023-03-24T21:14:03.144Z,97717.84
2023-03-24T21:16:09.872Z,97710.69
2023-03-24T21:18:15.054Z,97714.72
2023-03-24T21:20:21.370Z,97705.72
2023-03-24T21:22:37.615Z,97704.53
2023-03-24T21:24:42.676Z,97713.22
2023-03-24T21:26:49.613Z,97718.44
2023-03-24T21:28:57.508Z,97712.91
2023-03-24T21:31:10.447Z,97705.81
2023-03-24T21:33:16.998Z,97704.34
2023-03-24T21:35:22.962Z,97696.16
2023-03-24T21:37:30.490Z,97693.50
2023-03-24T21:39:37.125Z,97687.69
2023-03-24T21:41:42.858Z,97696.28
2023-03-24T21:43:51.418Z,97695.06
2023-03-24T21:45:59.687Z,97692.28
2023-03-24T21:48:05.987Z,97698.38
2023-03-24T21:50:12.783Z,97690.19
2023-03-24T21:52:19.471Z,97694.47
2023-03-24T21:54:26.903Z,97687.44
2023-03-24T21:56:33.963Z,97687.88
2023-03-24T21:58:39.612Z,97694.63
2023-03-24T22:00:44.968Z,97691.84
2023-03-24T22:02:58.257Z,97669.53
2023-03-24T22:05:03.442Z,97684.25
2023-03-24T22:07:08.822Z,97683.16
2023-03-24T22:09:14.040Z,97686.09
2023-03-24T22:11:19.797Z,97681.06
2023-03-24T22:13:24.870Z,97678.16
2023-03-24T22:15:32.501Z,97682.09
2023-03-24T22:17:39.561Z,97675.25
2023-03-24T22:19:47.161Z,97682.69
2023-03-24T22:21:57.490Z,97687.50
2023-03-24T22:24:02.555Z,97696.34
2023-03-24T22:26:11.639Z,97703.19
2023-03-24T22:28:16.756Z,97698.94
2023-03-24T22:30:21.977Z,97706.53
2023-03-24T22:32:27.751Z,97719.97
2023-03-24T22:34:33.131Z,97716.63
2023-03-24T22:36:41.078Z,97719.78
2023-03-24T22:38:46.319Z,97727.97
2023-03-24T22:40:51.471Z,97729.59
2023-03-24T22:42:56.969Z,97727.03
2023-03-24T22:45:02.042Z,97733.63
2023-03-24T22:47:07.924Z,97737.72
2023-03-24T22:49:12.955Z,97743.38
2023-03-24T22:51:19.701Z,97743.25
2023-03-24T22:53:27.397Z,97746.69
2023-03-24T22:55:32.440Z,97749.97
2023-03-24T22:57:37.490Z,97762.47
2023-03-24T22:59:42.905Z,97769.97
2023-03-24T23:01:58.883Z,97768.81
2023-03-24T23:04:11.402Z,97768.59
2023-03-24T23:06:17.068Z,97753.25
2023-03-24T23:08:22.754Z,97746.19
2023-03-24T23:10:30.769Z,97736.72
2023-03-24T23:12:37.172Z,97740.88
2023-03-24T23:14:42.707Z,97744.03
2023-03-24T23:16:48.273Z,97727.03
2023-03-24T23:18:53.363Z,97732.88
2023-03-24T23:21:07.300Z,97724.44
2023-03-24T23:23:13.789Z,97716.19
2023-03-24T23:25:20.404Z,97724.78
2023-03-24T23:27:28.448Z,97711.09
2023-03-24T23:29:33.465Z,97711.59
2023-03-24T23:31:40.741Z,97718.69
2023-03-24T23:33:47.272Z,97717.44
2023-03-24T23:35:53.133Z,97712.28
2023-03-24T23:37:58.691Z,97719.41
2023-03-24T23:40:09.566Z,97711.69
2023-03-24T23:42:15.317Z,97718.22
2023-03-24T23:44:22.941Z,97709.56
2023-03-24T23:46:28.256Z,97711.50
2023-03-24T23:48:34.734Z,97724.69
2023-03-24T23:50:39.798Z,97718.63
2023-03-24T23:52:45.178Z,97723.34
2023-03-24T23:54:50.181Z,97716.50
2023-03-24T23:56:55.737Z,97716.88
2023-03-24T23:59:01.415Z,97723.13
